createdAt,value
2019-03-15T00:00:28.060Z,66.98
2019-03-15T00:03:00.534Z,67.02
2019-03-15T00:05:34.575Z,66.92
2019-03-15T00:08:06.570Z,66.52
2019-03-15T00:10:39.218Z,66.79
2019-03-15T00:13:12.467Z,66.84
2019-03-15T00:15:44.172Z,66.96
2019-03-15T00:18:16.372Z,66.67
2019-03-15T00:20:48.159Z,66.81
2019-03-15T00:23:21.129Z,66.76
2019-03-15T00:25:55.344Z,66.99
2019-03-15T00:28:27.152Z,66.99
2019-03-15T00:30:58.968Z,66.66
2019-03-15T00:33:31.452Z,66.66
2019-03-15T00:36:03.128Z,66.95
2019-03-15T00:38:35.199Z,66.89
2019-03-15T00:41:07.209Z,66.63
2019-03-15T00:43:39.218Z,66.70
2019-03-15T00:46:11.275Z,66.41
2019-03-15T00:48:43.320Z,66.60
2019-03-15T00:51:15.467Z,66.75
2019-03-15T00:53:47.304Z,66.51
2019-03-15T00:56:19.199Z,66.21
2019-03-15T00:58:51.026Z,66.59
2019-03-15T01:01:24.233Z,66.38
2019-03-15T01:03:55.877Z,66.35
2019-03-15T01:06:27.749Z,66.20
2019-03-15T01:08:59.588Z,66.05
2019-03-15T01:11:31.285Z,65.83
2019-03-15T01:14:04.256Z,66.09
2019-03-15T01:16:36.116Z,65.90
2019-03-15T01:19:08.430Z,65.81
2019-03-15T01:21:40.573Z,65.73
2019-03-15T01:24:12.579Z,65.66
2019-03-15T01:26:47.017Z,65.57
2019-03-15T01:29:18.645Z,65.72
2019-03-15T01:31:50.365Z,65.49
2019-03-15T01:34:23.004Z,65.48
2019-03-15T01:36:54.982Z,65.59
2019-03-15T01:39:26.789Z,65.57
2019-03-15T01:41:59.997Z,65.59
2019-03-15T01:44:31.963Z,65.60
2019-03-15T01:47:03.841Z,65.57
2019-03-15T01:49:38.169Z,65.53
2019-03-15T01:52:10.128Z,65.47
2019-03-15T01:54:42.098Z,65.53
2019-03-15T01:57:13.834Z,65.72
2019-03-15T01:59:45.851Z,65.68
2019-03-15T02:02:17.491Z,66.36
2019-03-15T02:04:50.736Z,66.36
2019-03-15T02:07:22.875Z,66.28
2019-03-15T02:09:54.644Z,66.28
2019-03-15T02:12:26.528Z,66.43
2019-03-15T02:14:58.251Z,66.40
2019-03-15T02:17:31.642Z,66.53
2019-03-15T02:20:03.283Z,66.40
2019-03-15T02:22:35.037Z,66.34
2019-03-15T02:25:06.973Z,66.65
2019-03-15T02:27:38.665Z,66.63
2019-03-15T02:30:10.818Z,66.68
2019-03-15T02:32:42.556Z,66.88
2019-03-15T02:35:14.526Z,67.13
2019-03-15T02:37:46.747Z,67.87
2019-03-15T02:40:18.882Z,68.65
2019-03-15T02:42:53.146Z,69.07
2019-03-15T02:45:25.140Z,69.47
2019-03-15T02:47:57.012Z,70.14
2019-03-15T02:50:29.384Z,70.90
2019-03-15T02:53:01.359Z,71.31
2019-03-15T02:55:34.115Z,71.73
2019-03-15T02:58:06.336Z,72.09
2019-03-15T03:00:41.033Z,72.67
2019-03-15T03:03:13.101Z,72.85
2019-03-15T03:05:46.233Z,73.25
2019-03-15T03:08:18.259Z,73.59
2019-03-15T03:10:49.949Z,73.68
2019-03-15T03:13:22.856Z,73.91
2019-03-15T03:15:55.950Z,74.02
2019-03-15T03:18:28.133Z,74.43
2019-03-15T03:21:02.325Z,74.45
2019-03-15T03:23:34.993Z,74.50
2019-03-15T03:26:06.597Z,75.04
2019-03-15T03:28:38.483Z,75.51
2019-03-15T03:31:10.368Z,75.99
2019-03-15T03:33:42.630Z,76.77
2019-03-15T03:36:14.429Z,77.20
2019-03-15T03:38:46.163Z,77.29
2019-03-15T03:41:17.914Z,78.24
2019-03-15T03:43:50.247Z,78.24
2019-03-15T03:46:22.063Z,78.96
2019-03-15T03:48:53.894Z,79.29
2019-03-15T03:51:27.701Z,79.81
2019-03-15T03:53:59.776Z,80.58
2019-03-15T03:56:32.591Z,80.75
2019-03-15T03:59:04.472Z,81.50
2019-03-15T04:01:36.385Z,81.73
2019-03-15T04:04:08.200Z,82.36
2019-03-15T04:06:40.323Z,82.83
2019-03-15T04:09:13.251Z,83.27
2019-03-15T04:11:55.406Z,83.80
2019-03-15T04:14:22.192Z,84.72
2019-03-15T04:16:54.516Z,85.54
2019-03-15T04:19:26.991Z,85.89
2019-03-15T04:21:58.873Z,86.51
2019-03-15T04:24:30.845Z,86.76
2019-03-15T04:27:02.528Z,87.05
2019-03-15T04:29:34.552Z,87.23
2019-03-15T04:32:06.247Z,87.62
2019-03-15T04:34:39.114Z,87.93
2019-03-15T04:37:11.140Z,88.46
2019-03-15T04:39:42.798Z,88.89
2019-03-15T04:42:14.757Z,89.43
2019-03-15T04:44:47.869Z,89.65
2019-03-15T04:47:20.229Z,89.93
2019-03-15T04:49:52.113Z,90.09
2019-03-15T04:52:24.060Z,90.38
2019-03-15T04:54:55.849Z,90.66
2019-03-15T04:57:27.966Z,90.52
2019-03-15T04:59:59.692Z,90.69
2019-03-15T05:02:32.588Z,91.08
2019-03-15T05:05:04.868Z,91.40
2019-03-15T05:07:36.553Z,91.55
2019-03-15T05:10:08.835Z,91.73
2019-03-15T05:12:40.621Z,92.13
2019-03-15T05:15:12.594Z,92.47
2019-03-15T05:17:44.376Z,92.52
2019-03-15T05:20:20.974Z,92.64
2019-03-15T05:22:53.854Z,92.59
2019-03-15T05:25:25.531Z,92.75
2019-03-15T05:27:57.280Z,92.89
2019-03-15T05:30:29.013Z,92.98
2019-03-15T05:33:01.007Z,93.19
2019-03-15T05:35:32.954Z,93.25
2019-03-15T05:38:05.082Z,93.48
2019-03-15T05:40:36.696Z,93.20
2019-03-15T05:43:08.598Z,94.07
2019-03-15T05:45:40.595Z,94.07
2019-03-15T05:48:12.287Z,94.20
2019-03-15T05:50:43.942Z,94.43
2019-03-15T05:53:15.717Z,94.69
2019-03-15T05:55:48.873Z,95.02
2019-03-15T05:58:21.904Z,95.25
2019-03-15T06:00:54.134Z,94.98
2019-03-15T06:03:26.982Z,95.11
2019-03-15T06:05:58.886Z,95.33
2019-03-15T06:08:31.111Z,94.79
2019-03-15T06:11:03.069Z,94.98
2019-03-15T06:13:34.688Z,94.70
2019-03-15T06:16:06.487Z,94.74
2019-03-15T06:18:38.380Z,95.03
2019-03-15T06:21:10.568Z,94.90
2019-03-15T06:23:44.267Z,94.85
2019-03-15T06:26:16.859Z,95.04
2019-03-15T06:28:48.531Z,95.23
2019-03-15T06:31:20.544Z,94.90
2019-03-15T06:33:53.515Z,95.06
2019-03-15T06:36:25.395Z,94.82
2019-03-15T06:38:57.341Z,94.84
2019-03-15T06:41:29.012Z,94.68
2019-03-15T06:44:00.612Z,94.21
2019-03-15T06:46:32.169Z,93.70
2019-03-15T06:49:03.935Z,92.51
2019-03-15T06:51:35.703Z,92.52
2019-03-15T06:54:11.688Z,91.47
2019-03-15T06:56:41.312Z,91.22
2019-03-15T06:59:12.912Z,91.37
2019-03-15T07:01:44.990Z,91.24
2019-03-15T07:04:16.917Z,91.90
2019-03-15T07:06:48.632Z,92.27
2019-03-15T07:09:20.460Z,92.60
2019-03-15T07:11:52.225Z,92.64
2019-03-15T07:14:23.819Z,92.50
2019-03-15T07:16:55.820Z,92.01
2019-03-15T07:19:30.377Z,92.32
2019-03-15T07:22:00.952Z,92.53
2019-03-15T07:24:32.555Z,91.74
2019-03-15T07:27:12.778Z,92.07
2019-03-15T07:29:38.379Z,92.71
2019-03-15T07:32:10.140Z,92.72
2019-03-15T07:34:41.803Z,92.54
2019-03-15T07:37:13.469Z,92.21
2019-03-15T07:39:45.338Z,91.91
2019-03-15T07:42:17.247Z,90.59
2019-03-15T07:44:49.751Z,90.73
2019-03-15T07:47:21.585Z,91.46
2019-03-15T07:49:53.233Z,91.25
2019-03-15T07:52:24.926Z,91.28
2019-03-15T07:54:56.898Z,90.23
2019-03-15T07:57:28.636Z,90.47
2019-03-15T08:00:00.516Z,89.68
2019-03-15T08:02:32.336Z,88.71
2019-03-15T08:05:04.332Z,87.17
2019-03-15T08:07:42.062Z,88.21
2019-03-15T08:10:09.753Z,86.83
2019-03-15T08:12:41.823Z,87.15
2019-03-15T08:15:14.268Z,85.14
2019-03-15T08:17:46.000Z,85.14
2019-03-15T08:20:17.851Z,84.46
2019-03-15T08:22:49.596Z,84.44
2019-03-15T08:25:21.327Z,83.65
2019-03-15T08:27:53.036Z,83.36
2019-03-15T08:30:25.741Z,83.24
2019-03-15T08:33:09.473Z,81.98
2019-03-15T08:35:30.894Z,81.30
2019-03-15T08:38:05.315Z,81.15
2019-03-15T08:40:35.904Z,81.98
2019-03-15T08:43:07.586Z,83.32
2019-03-15T08:45:39.181Z,84.57
2019-03-15T08:48:11.055Z,85.29
2019-03-15T08:50:42.808Z,85.10
2019-03-15T08:53:14.722Z,82.67
2019-03-15T08:55:46.337Z,82.89
2019-03-15T08:58:21.775Z,82.77
2019-03-15T09:00:51.827Z,81.91
2019-03-15T09:03:28.234Z,81.25
2019-03-15T09:05:57.135Z,80.72
2019-03-15T09:08:29.333Z,80.24
2019-03-15T09:11:01.230Z,78.85
2019-03-15T09:13:34.595Z,79.35
2019-03-15T09:16:06.699Z,77.64
2019-03-15T09:18:38.438Z,77.33
2019-03-15T09:21:10.357Z,76.94
2019-03-15T09:23:42.547Z,76.23
2019-03-15T09:26:14.471Z,76.03
2019-03-15T09:28:46.689Z,76.06
2019-03-15T09:31:19.824Z,76.62
2019-03-15T09:33:51.452Z,75.90
2019-03-15T09:36:23.400Z,73.82
2019-03-15T09:38:55.534Z,74.96
2019-03-15T09:41:33.378Z,71.66
2019-03-15T09:44:02.765Z,70.83
2019-03-15T09:46:36.280Z,70.25
2019-03-15T09:49:08.229Z,68.50
2019-03-15T09:51:40.235Z,69.12
2019-03-15T09:54:12.022Z,69.87
2019-03-15T09:56:44.080Z,69.05
2019-03-15T09:59:19.162Z,68.12
2019-03-15T10:01:49.963Z,66.79
2019-03-15T10:04:21.786Z,66.33
2019-03-15T10:06:53.723Z,65.94
2019-03-15T10:09:25.537Z,67.33
2019-03-15T10:11:58.843Z,65.19
2019-03-15T10:14:30.965Z,66.00
2019-03-15T10:17:02.895Z,65.74
2019-03-15T10:19:34.931Z,64.93
2019-03-15T10:22:06.690Z,64.74
2019-03-15T10:24:38.855Z,65.79
2019-03-15T10:27:10.717Z,64.96
2019-03-15T10:29:44.232Z,65.62
2019-03-15T10:32:16.246Z,65.56
2019-03-15T10:34:48.660Z,68.20
2019-03-15T10:37:20.702Z,70.22
2019-03-15T10:39:52.387Z,68.76
2019-03-15T10:42:24.167Z,68.55
2019-03-15T10:44:56.352Z,68.67
2019-03-15T10:47:28.143Z,68.01
2019-03-15T10:50:00.693Z,71.71
2019-03-15T10:52:33.483Z,71.18
2019-03-15T10:55:06.325Z,71.36
2019-03-15T10:57:39.242Z,71.89
2019-03-15T11:00:12.897Z,69.05
2019-03-15T11:02:44.663Z,68.77
2019-03-15T11:05:17.144Z,69.53
2019-03-15T11:07:48.905Z,68.21
2019-03-15T11:10:20.855Z,68.00
2019-03-15T11:12:52.685Z,65.94
2019-03-15T11:15:24.383Z,65.15
2019-03-15T11:17:56.164Z,66.65
2019-03-15T11:20:28.050Z,68.85
2019-03-15T11:23:00.008Z,71.99
2019-03-15T11:25:31.836Z,74.37
2019-03-15T11:28:03.495Z,75.64
2019-03-15T11:30:35.219Z,77.42
2019-03-15T11:33:07.655Z,79.13
2019-03-15T11:35:39.359Z,81.89
2019-03-15T11:38:11.186Z,84.63
2019-03-15T11:40:44.554Z,84.54
2019-03-15T11:43:16.583Z,84.96
2019-03-15T11:45:48.731Z,87.17
2019-03-15T11:48:20.926Z,86.16
2019-03-15T11:50:52.979Z,89.14
2019-03-15T11:53:24.771Z,89.69
2019-03-15T11:55:57.047Z,89.47
2019-03-15T11:58:29.663Z,89.41
2019-03-15T12:01:01.532Z,88.62
2019-03-15T12:03:35.014Z,88.62
2019-03-15T12:06:07.138Z,89.44
2019-03-15T12:08:39.257Z,87.10
2019-03-15T12:11:11.352Z,82.47
2019-03-15T12:13:43.269Z,80.33
2019-03-15T12:16:15.072Z,80.35
2019-03-15T12:18:46.964Z,80.90
2019-03-15T12:21:18.734Z,80.80
2019-03-15T12:23:52.240Z,79.72
2019-03-15T12:26:39.467Z,79.71
2019-03-15T12:28:59.811Z,77.83
2019-03-15T12:31:31.489Z,77.65
2019-03-15T12:34:03.556Z,78.23
2019-03-15T12:36:35.385Z,76.59
2019-03-15T12:39:08.585Z,75.23
2019-03-15T12:41:40.651Z,76.51
2019-03-15T12:44:12.370Z,74.15
2019-03-15T12:46:44.747Z,70.06
2019-03-15T12:49:17.113Z,70.44
2019-03-15T12:51:49.319Z,70.39
2019-03-15T12:54:22.419Z,71.29
2019-03-15T12:56:54.357Z,71.57
2019-03-15T12:59:26.432Z,70.97
2019-03-15T13:01:59.391Z,71.03
2019-03-15T13:04:31.137Z,69.60
2019-03-15T13:07:03.045Z,68.32
2019-03-15T13:09:34.766Z,67.21
2019-03-15T13:12:06.368Z,68.44
2019-03-15T13:14:40.505Z,66.84
2019-03-15T13:17:14.025Z,66.78
2019-03-15T13:19:54.999Z,65.62
2019-03-15T13:22:20.044Z,64.43
2019-03-15T13:24:51.723Z,64.58
2019-03-15T13:27:23.511Z,63.85
2019-03-15T13:29:56.619Z,64.09
2019-03-15T13:32:28.496Z,63.39
2019-03-15T13:35:00.403Z,62.98
2019-03-15T13:37:32.020Z,63.30
2019-03-15T13:40:04.738Z,62.63
2019-03-15T13:42:36.444Z,62.77
2019-03-15T13:45:10.295Z,63.23
2019-03-15T13:47:43.705Z,62.80
2019-03-15T13:50:16.996Z,62.69
2019-03-15T13:52:49.863Z,61.98
2019-03-15T13:55:21.502Z,61.89
2019-03-15T13:57:53.320Z,62.18
2019-03-15T14:00:27.406Z,61.12
2019-03-15T14:02:59.278Z,61.48
2019-03-15T14:05:32.370Z,60.50
2019-03-15T14:08:11.718Z,59.79
2019-03-15T14:10:48.511Z,58.52
2019-03-15T14:13:12.240Z,58.42
2019-03-15T14:15:45.586Z,58.59
2019-03-15T14:18:17.826Z,59.17
2019-03-15T14:20:49.392Z,58.76
2019-03-15T14:23:22.103Z,58.46
2019-03-15T14:25:54.126Z,58.24
2019-03-15T14:28:25.835Z,58.05
2019-03-15T14:30:57.763Z,58.03
2019-03-15T14:33:30.320Z,57.73
2019-03-15T14:36:03.955Z,56.81
2019-03-15T14:38:35.548Z,57.01
2019-03-15T14:41:07.899Z,56.09
2019-03-15T14:43:41.008Z,55.80
2019-03-15T14:46:12.692Z,54.41
2019-03-15T14:48:44.499Z,53.54
2019-03-15T14:51:17.957Z,53.33
2019-03-15T14:53:49.863Z,53.47
2019-03-15T14:56:22.978Z,53.79
2019-03-15T14:58:55.991Z,53.96
2019-03-15T15:01:27.631Z,54.66
2019-03-15T15:03:59.464Z,54.69
2019-03-15T15:06:33.476Z,55.10
2019-03-15T15:09:07.499Z,54.94
2019-03-15T15:11:39.923Z,55.05
2019-03-15T15:14:11.686Z,55.12
2019-03-15T15:16:43.315Z,55.48
2019-03-15T15:19:14.950Z,54.67
2019-03-15T15:21:46.586Z,54.74
2019-03-15T15:24:18.290Z,54.17
2019-03-15T15:26:50.010Z,54.13
2019-03-15T15:29:22.213Z,54.68
2019-03-15T15:31:53.928Z,53.98
2019-03-15T15:34:25.481Z,54.15
2019-03-15T15:36:57.106Z,54.07
2019-03-15T15:39:28.926Z,53.85
2019-03-15T15:42:00.668Z,53.85
2019-03-15T15:44:32.392Z,54.15
2019-03-15T15:47:04.142Z,53.91
2019-03-15T15:49:36.131Z,54.22
2019-03-15T15:52:08.351Z,54.30
2019-03-15T15:54:41.451Z,54.13
2019-03-15T15:57:13.697Z,54.23
2019-03-15T15:59:46.024Z,54.21
2019-03-15T16:02:18.180Z,54.22
2019-03-15T16:04:50.351Z,54.46
2019-03-15T16:07:22.534Z,54.21
2019-03-15T16:09:55.561Z,54.21
2019-03-15T16:12:27.897Z,54.44
2019-03-15T16:14:59.554Z,54.63
2019-03-15T16:17:31.118Z,54.33
2019-03-15T16:20:02.876Z,54.52
2019-03-15T16:22:34.438Z,54.42
2019-03-15T16:25:06.156Z,54.57
2019-03-15T16:27:37.874Z,54.51
2019-03-15T16:30:13.342Z,54.37
2019-03-15T16:32:45.011Z,54.13
2019-03-15T16:35:16.839Z,54.17
2019-03-15T16:37:48.563Z,54.10
2019-03-15T16:40:20.437Z,54.34
2019-03-15T16:42:54.194Z,54.31
2019-03-15T16:45:29.279Z,54.17
2019-03-15T16:48:01.571Z,54.35
2019-03-15T16:50:33.428Z,54.46
2019-03-15T16:53:06.064Z,54.94
2019-03-15T16:55:37.866Z,54.69
2019-03-15T16:58:10.869Z,54.63
2019-03-15T17:00:43.026Z,54.77
2019-03-15T17:03:14.743Z,54.96
2019-03-15T17:05:46.691Z,55.27
2019-03-15T17:08:18.675Z,55.49
2019-03-15T17:10:50.443Z,55.86
2019-03-15T17:13:22.196Z,56.73
2019-03-15T17:15:54.370Z,57.67
2019-03-15T17:18:27.998Z,57.92
2019-03-15T17:21:00.477Z,58.72
2019-03-15T17:23:32.271Z,58.72
2019-03-15T17:26:04.375Z,59.46
2019-03-15T17:28:36.118Z,59.89
2019-03-15T17:31:09.996Z,59.98
2019-03-15T17:33:41.880Z,60.48
2019-03-15T17:36:14.151Z,60.75
2019-03-15T17:38:46.093Z,60.94
2019-03-15T17:41:17.891Z,61.02
2019-03-15T17:43:50.024Z,61.37
2019-03-15T17:46:22.016Z,61.46
2019-03-15T17:48:54.416Z,61.55
2019-03-15T17:51:26.338Z,61.73
2019-03-15T17:53:59.930Z,61.72
2019-03-15T17:56:31.702Z,61.77
2019-03-15T17:59:12.502Z,61.72
2019-03-15T18:01:38.161Z,61.70
2019-03-15T18:04:10.042Z,61.80
2019-03-15T18:06:42.423Z,61.80
2019-03-15T18:09:14.233Z,61.48
2019-03-15T18:11:46.236Z,61.76
2019-03-15T18:14:17.932Z,61.69
2019-03-15T18:16:49.983Z,61.74
2019-03-15T18:19:21.879Z,61.77
2019-03-15T18:21:53.656Z,61.85
2019-03-15T18:24:25.631Z,61.92
2019-03-15T18:26:57.305Z,61.88
2019-03-15T18:29:29.058Z,62.02
2019-03-15T18:32:00.717Z,62.18
2019-03-15T18:34:33.498Z,62.18
2019-03-15T18:37:06.043Z,62.36
2019-03-15T18:39:39.235Z,62.61
2019-03-15T18:42:12.853Z,62.59
2019-03-15T18:44:44.505Z,62.67
2019-03-15T18:47:16.826Z,62.58
2019-03-15T18:49:48.572Z,62.65
2019-03-15T18:52:20.361Z,62.67
2019-03-15T18:54:52.542Z,62.68
2019-03-15T18:57:24.305Z,63.01
2019-03-15T18:59:56.054Z,62.81
2019-03-15T19:02:27.748Z,62.86
2019-03-15T19:04:59.428Z,62.88
2019-03-15T19:07:31.146Z,62.63
2019-03-15T19:10:03.428Z,62.64
2019-03-15T19:12:35.164Z,62.51
2019-03-15T19:15:09.780Z,62.48
2019-03-15T19:17:41.660Z,62.55
2019-03-15T19:20:13.697Z,62.56
2019-03-15T19:22:45.591Z,62.51
2019-03-15T19:25:17.559Z,62.62
2019-03-15T19:27:49.402Z,62.49
2019-03-15T19:30:21.688Z,62.44
2019-03-15T19:32:55.642Z,62.44
2019-03-15T19:35:27.339Z,62.63
2019-03-15T19:37:59.033Z,62.43
2019-03-15T19:40:30.855Z,62.54
2019-03-15T19:43:02.933Z,62.61
2019-03-15T19:45:34.561Z,62.70
2019-03-15T19:48:06.321Z,62.78
2019-03-15T19:50:38.422Z,62.83
2019-03-15T19:53:10.192Z,62.92
2019-03-15T19:55:41.878Z,62.84
2019-03-15T19:58:13.743Z,62.97
2019-03-15T20:00:47.347Z,63.20
2019-03-15T20:03:19.055Z,63.41
2019-03-15T20:05:50.885Z,63.77
2019-03-15T20:08:22.613Z,64.11
2019-03-15T20:10:54.570Z,64.67
2019-03-15T20:13:27.632Z,65.53
2019-03-15T20:15:59.550Z,66.80
2019-03-15T20:18:31.207Z,67.18
2019-03-15T20:21:04.107Z,68.26
2019-03-15T20:23:36.198Z,68.80
2019-03-15T20:26:09.221Z,68.92
2019-03-15T20:28:41.180Z,69.65
2019-03-15T20:31:13.172Z,69.42
2019-03-15T20:33:46.969Z,69.57
2019-03-15T20:36:18.733Z,69.41
2019-03-15T20:38:50.751Z,69.08
2019-03-15T20:41:22.586Z,69.62
2019-03-15T20:43:54.410Z,69.84
2019-03-15T20:46:35.597Z,69.70
2019-03-15T20:48:59.626Z,69.92
2019-03-15T20:51:31.708Z,70.28
2019-03-15T20:54:03.850Z,70.70
2019-03-15T20:56:35.740Z,70.86
2019-03-15T20:59:07.605Z,71.10
2019-03-15T21:01:39.545Z,71.25
2019-03-15T21:04:11.586Z,71.62
2019-03-15T21:06:43.723Z,71.87
2019-03-15T21:09:15.552Z,72.01
2019-03-15T21:11:47.334Z,72.09
2019-03-15T21:14:19.224Z,72.15
2019-03-15T21:16:51.992Z,72.15
2019-03-15T21:19:24.071Z,72.57
2019-03-15T21:21:57.359Z,72.57
2019-03-15T21:24:29.149Z,72.49
2019-03-15T21:27:01.413Z,72.57
2019-03-15T21:29:33.147Z,72.54
2019-03-15T21:32:05.977Z,72.95
2019-03-15T21:34:38.355Z,72.95
2019-03-15T21:37:10.170Z,72.81
2019-03-15T21:39:42.164Z,72.70
2019-03-15T21:42:13.940Z,72.52
2019-03-15T21:44:45.649Z,72.57
2019-03-15T21:47:17.428Z,72.55
2019-03-15T21:49:49.270Z,72.55
2019-03-15T21:52:20.978Z,72.54
2019-03-15T21:54:53.151Z,72.34
2019-03-15T21:57:25.165Z,72.57
2019-03-15T21:59:57.077Z,72.57
2019-03-15T22:02:29.113Z,72.57
2019-03-15T22:05:01.104Z,72.49
2019-03-15T22:07:33.857Z,72.46
2019-03-15T22:10:06.489Z,72.57
2019-03-15T22:12:38.242Z,72.96
2019-03-15T22:15:11.220Z,73.45
2019-03-15T22:17:43.330Z,74.04
2019-03-15T22:20:15.314Z,74.83
2019-03-15T22:22:47.065Z,76.15
2019-03-15T22:25:19.191Z,76.65
2019-03-15T22:27:51.001Z,77.32
2019-03-15T22:30:23.178Z,78.24
2019-03-15T22:32:55.380Z,78.67
2019-03-15T22:35:27.090Z,79.43
2019-03-15T22:37:59.059Z,80.32
2019-03-15T22:40:31.308Z,80.45
2019-03-15T22:43:03.293Z,80.95
2019-03-15T22:45:35.452Z,80.79
2019-03-15T22:48:07.391Z,81.00
2019-03-15T22:50:39.072Z,81.32
2019-03-15T22:53:11.032Z,81.55
2019-03-15T22:55:43.798Z,81.67
2019-03-15T22:58:16.030Z,82.12
2019-03-15T23:00:49.307Z,82.80
2019-03-15T23:03:21.439Z,84.06
2019-03-15T23:05:53.721Z,84.49
2019-03-15T23:08:25.605Z,86.14
2019-03-15T23:10:57.796Z,87.25
2019-03-15T23:13:29.382Z,87.82
2019-03-15T23:16:01.351Z,88.69
2019-03-15T23:18:33.581Z,89.15
2019-03-15T23:21:06.297Z,89.50
2019-03-15T23:23:38.208Z,89.96
2019-03-15T23:26:10.534Z,90.92
2019-03-15T23:28:42.593Z,91.84
2019-03-15T23:31:14.396Z,92.48
2019-03-15T23:33:46.254Z,93.20
2019-03-15T23:36:17.910Z,94.20
2019-03-15T23:38:49.734Z,94.53
2019-03-15T23:41:21.679Z,95.12
2019-03-15T23:43:53.623Z,95.07
2019-03-15T23:46:25.311Z,95.69
2019-03-15T23:48:57.552Z,96.74
2019-03-15T23:51:29.267Z,97.05
2019-03-15T23:54:00.877Z,96.50
2019-03-15T23:56:32.559Z,94.29
2019-03-15T23:59:04.696Z,90.76
